Time;durP1;ratioP1;P1;durP2;ratioP2;P2;SDS_P1;SDS_P2;PMS_P1;PMS_P2;Temp;Humidity;BMP_temperature;BMP_pressure;BME280_temperature;BME280_humidity;BME280_pressure;Samples;Min_cycle;Max_cycle;Signal;HPM_P1;HPM_P2
2023/01/28 00:01:10;;;;;;;27.27;15.93;;;4.70;99.90;;;;;;5117438;28;20180;-86
2023/01/28 00:03:37;;;;;;;30.42;18.40;;;4.60;99.90;;;;;;5118279;28;20200;-85
2023/01/28 00:06:08;;;;;;;26.73;16.60;;;4.70;99.90;;;;;;5116897;28;20188;-82
2023/01/28 00:08:34;;;;;;;38.03;19.40;;;4.60;99.90;;;;;;5116355;28;20233;-80
2023/01/28 00:11:01;;;;;;;32.53;18.20;;;4.70;99.90;;;;;;5098373;28;20679;-84
2023/01/28 00:13:28;;;;;;;26.33;16.95;;;4.70;99.90;;;;;;5116614;28;20192;-81
2023/01/28 00:15:59;;;;;;;27.15;15.90;;;4.70;99.90;;;;;;5098287;28;20179;-85
2023/01/28 00:18:26;;;;;;;31.25;18.17;;;4.70;99.90;;;;;;5098186;28;20199;-84
2023/01/28 00:21:06;;;;;;;36.47;18.83;;;4.70;99.90;;;;;;5116456;28;20214;-81
2023/01/28 00:23:34;;;;;;;30.33;17.15;;;4.70;99.90;;;;;;5098173;28;20195;-84
2023/01/28 00:26:02;;;;;;;28.83;17.77;;;4.70;99.90;;;;;;5116468;28;20172;-81
2023/01/28 00:28:28;;;;;;;31.73;18.83;;;4.70;99.90;;;;;;5116517;28;20191;-85
2023/01/28 00:30:54;;;;;;;34.47;18.80;;;4.70;99.90;;;;;;5116915;28;20680;-82
2023/01/28 00:33:20;;;;;;;31.03;18.30;;;4.70;99.90;;;;;;5101087;28;20415;-87
2023/01/28 00:35:45;;;;;;;30.20;18.40;;;4.70;99.90;;;;;;5116275;28;20371;-84
2023/01/28 00:38:11;;;;;;;31.93;18.13;;;4.70;99.90;;;;;;5097782;28;20440;-85
2023/01/28 00:40:37;;;;;;;28.90;17.17;;;4.70;99.90;;;;;;5097778;28;20183;-80
2023/01/28 00:43:03;;;;;;;32.57;18.17;;;4.60;99.90;;;;;;5097749;28;20401;-81
2023/01/28 00:45:29;;;;;;;30.40;17.20;;;4.70;99.90;;;;;;5116097;28;20387;-83
2023/01/28 00:47:54;;;;;;;33.43;18.17;;;4.70;99.90;;;;;;5097651;28;20226;-85
2023/01/28 00:50:20;;;;;;;30.33;17.47;;;4.70;99.90;;;;;;5116071;28;20176;-85
2023/01/28 00:52:47;;;;;;;27.50;18.13;;;4.60;99.90;;;;;;5115710;28;20467;-81
2023/01/28 00:55:13;;;;;;;28.63;18.40;;;4.70;99.90;;;;;;5097537;28;20412;-81
2023/01/28 00:57:39;;;;;;;30.48;16.90;;;4.70;99.90;;;;;;5115243;28;20587;-86
2023/01/28 01:00:05;;;;;;;29.60;17.80;;;4.70;99.90;;;;;;5097839;28;20180;-80
2023/01/28 01:02:31;;;;;;;27.73;17.08;;;4.70;99.90;;;;;;5115633;28;20218;-81
2023/01/28 01:04:57;;;;;;;35.47;18.95;;;4.70;99.90;;;;;;5097696;28;20206;-81
2023/01/28 01:07:31;;;;;;;34.57;19.00;;;4.70;99.90;;;;;;5097182;28;20196;-86
2023/01/28 01:09:59;;;;;;;27.42;17.40;;;4.70;99.90;;;;;;5097188;28;20224;-81
2023/01/28 01:12:25;;;;;;;29.40;17.67;;;4.70;99.90;;;;;;5115310;28;20207;-85
2023/01/28 01:14:51;;;;;;;36.17;20.17;;;4.70;99.90;;;;;;5116048;28;20286;-81
2023/01/28 01:17:17;;;;;;;32.27;17.60;;;4.70;99.90;;;;;;5097140;28;20495;-84
2023/01/28 01:19:42;;;;;;;30.60;17.73;;;4.70;99.90;;;;;;5115297;28;20186;-81
2023/01/28 01:22:08;;;;;;;27.50;17.07;;;4.70;99.90;;;;;;5115750;28;20428;-80
2023/01/28 01:24:34;;;;;;;29.40;17.17;;;4.80;99.90;;;;;;5117324;28;20179;-86
2023/01/28 01:26:59;;;;;;;36.97;18.70;;;4.80;99.90;;;;;;5099381;28;20240;-88
2023/01/28 01:29:25;;;;;;;29.73;19.67;;;4.80;99.90;;;;;;5115494;28;20270;-81
2023/01/28 01:31:51;;;;;;;36.37;20.53;;;4.70;99.90;;;;;;5096754;28;20208;-86
2023/01/28 01:34:17;;;;;;;27.47;16.80;;;4.70;99.90;;;;;;5096965;28;20636;-82
2023/01/28 01:36:43;;;;;;;35.58;18.85;;;4.70;99.90;;;;;;5096787;28;20444;-85
2023/01/28 01:39:11;;;;;;;29.73;17.97;;;4.70;99.90;;;;;;5096845;28;20204;-80
2023/01/28 01:41:37;;;;;;;32.72;19.17;;;4.70;99.90;;;;;;5096687;28;20209;-85
2023/01/28 01:44:05;;;;;;;34.77;18.40;;;4.70;99.90;;;;;;5096654;28;20212;-85
2023/01/28 01:46:47;;;;;;;26.88;16.75;;;4.70;99.90;;;;;;5114869;28;20199;-81
2023/01/28 01:49:19;;;;;;;33.22;17.20;;;4.70;99.90;;;;;;5115309;28;20176;-80
2023/01/28 01:51:49;;;;;;;36.00;19.95;;;4.70;99.90;;;;;;5114693;28;20273;-85
2023/01/28 01:54:18;;;;;;;31.20;17.88;;;4.60;99.90;;;;;;5115097;28;20653;-85
2023/01/28 01:56:47;;;;;;;28.77;16.88;;;4.50;99.90;;;;;;5114719;28;20633;-81
2023/01/28 01:59:17;;;;;;;30.42;17.02;;;4.50;99.90;;;;;;5115326;28;20624;-80
2023/01/28 02:01:44;;;;;;;31.83;17.00;;;4.40;99.90;;;;;;5115923;28;20176;-85
2023/01/28 02:04:18;;;;;;;30.90;16.83;;;4.40;99.90;;;;;;5114877;28;20244;-80
2023/01/28 02:06:44;;;;;;;31.63;20.20;;;4.40;99.90;;;;;;5114522;28;20631;-81
2023/01/28 02:09:28;;;;;;;29.80;17.13;;;4.40;99.90;;;;;;5113540;28;20223;-81
2023/01/28 02:12:19;;;;;;;36.17;20.05;;;4.40;99.90;;;;;;5114430;28;20192;-81
2023/01/28 02:14:52;;;;;;;33.78;19.10;;;4.30;99.90;;;;;;5114890;28;20208;-81
2023/01/28 02:17:18;;;;;;;33.35;19.48;;;4.40;99.90;;;;;;5114796;28;20198;-84
2023/01/28 02:19:58;;;;;;;28.92;18.50;;;4.40;99.90;;;;;;5114748;28;20187;-85
2023/01/28 02:22:45;;;;;;;32.92;19.67;;;4.40;99.90;;;;;;5096021;28;20587;-81
2023/01/28 02:25:24;;;;;;;35.33;19.13;;;4.30;99.90;;;;;;5114617;28;20255;-81
2023/01/28 02:28:08;;;;;;;26.95;17.38;;;4.20;99.90;;;;;;5114192;28;20188;-80
2023/01/28 02:31:02;;;;;;;36.00;20.23;;;4.20;99.90;;;;;;5096864;28;20205;-85
2023/01/28 02:33:58;;;;;;;32.40;18.67;;;4.20;99.90;;;;;;5095587;28;20286;-84
2023/01/28 02:36:42;;;;;;;33.75;20.27;;;4.10;99.90;;;;;;5114145;28;20172;-79
2023/01/28 02:39:14;;;;;;;35.30;21.35;;;4.20;99.90;;;;;;5114444;28;20695;-85
2023/01/28 02:41:47;;;;;;;36.05;21.42;;;4.10;99.90;;;;;;5114207;28;20515;-85
2023/01/28 02:44:13;;;;;;;28.58;19.60;;;4.20;99.90;;;;;;5096054;28;20275;-85
2023/01/28 02:49:52;;;;;;;37.25;20.83;;;4.20;99.90;;;;;;5114694;28;20217;-86
2023/01/28 02:56:28;;;;;;;36.08;20.63;;;4.20;99.90;;;;;;5106310;28;20241;-80
2023/01/28 02:59:31;;;;;;;34.35;19.13;;;4.10;99.90;;;;;;5014608;28;20236;-84
2023/01/28 03:02:26;;;;;;;33.53;20.88;;;4.10;99.90;;;;;;5114099;28;20705;-81
2023/01/28 03:05:21;;;;;;;39.17;21.10;;;4.10;99.90;;;;;;5082096;28;20697;-85
2023/01/28 03:07:48;;;;;;;33.55;20.75;;;4.10;99.90;;;;;;5095425;28;20665;-80
2023/01/28 03:10:18;;;;;;;32.95;20.58;;;4.10;99.90;;;;;;5096180;28;20749;-85
2023/01/28 03:38:47;;;;;;;37.00;20.55;;;4.10;99.90;;;;;;5117646;28;20202;-81
2023/01/28 03:41:40;;;;;;;35.45;19.45;;;4.10;99.90;;;;;;5117351;28;20152;-84
2023/01/28 03:46:50;;;;;;;33.70;20.63;;;4.10;99.90;;;;;;5117242;28;20190;-81
2023/01/28 03:49:16;;;;;;;34.40;18.97;;;4.10;99.90;;;;;;5117507;28;20176;-80
2023/01/28 03:51:45;;;;;;;38.10;21.40;;;4.10;99.90;;;;;;5116936;28;20753;-84
2023/01/28 03:54:11;;;;;;;33.83;21.02;;;4.00;99.90;;;;;;5118919;28;20229;-86
2023/01/28 03:56:39;;;;;;;33.00;21.17;;;4.00;99.90;;;;;;5118520;28;20247;-85
2023/01/28 03:59:06;;;;;;;40.30;20.73;;;4.00;99.90;;;;;;5099609;28;20392;-86
2023/01/28 04:01:31;;;;;;;37.47;21.75;;;4.00;99.90;;;;;;5117094;28;20171;-84
2023/01/28 04:03:57;;;;;;;40.20;23.30;;;4.00;99.90;;;;;;5116773;28;20572;-80
2023/01/28 04:06:23;;;;;;;39.03;21.73;;;4.00;99.90;;;;;;5116838;28;20408;-83
2023/01/28 04:08:52;;;;;;;38.63;20.97;;;4.00;99.90;;;;;;5116567;28;20589;-84
2023/01/28 04:11:24;;;;;;;41.97;22.70;;;4.10;99.90;;;;;;5098474;28;20617;-84
2023/01/28 04:13:49;;;;;;;34.70;20.55;;;4.10;99.90;;;;;;5117172;28;20221;-84
2023/01/28 04:16:17;;;;;;;33.23;20.90;;;4.10;99.90;;;;;;5116627;28;20633;-80
2023/01/28 04:18:44;;;;;;;36.10;20.52;;;4.10;99.90;;;;;;5098205;28;20206;-84
2023/01/28 04:21:10;;;;;;;38.50;21.67;;;4.10;99.90;;;;;;5116598;28;20186;-84
2023/01/28 04:23:36;;;;;;;40.10;20.08;;;4.10;99.90;;;;;;5098203;28;20196;-84
2023/01/28 04:26:03;;;;;;;36.90;21.20;;;4.10;99.90;;;;;;5098211;28;20180;-83
2023/01/28 04:28:28;;;;;;;36.85;21.65;;;4.10;99.90;;;;;;5116397;28;20195;-80
2023/01/28 04:30:54;;;;;;;33.30;20.93;;;4.10;99.90;;;;;;5097954;28;20215;-80
2023/01/28 04:33:20;;;;;;;37.40;21.70;;;4.10;99.90;;;;;;5115374;28;20427;-80
2023/01/28 04:35:45;;;;;;;34.93;20.90;;;4.10;99.90;;;;;;5116273;28;20175;-80
2023/01/28 04:38:11;;;;;;;36.83;21.90;;;4.00;99.90;;;;;;5097812;28;20257;-81
2023/01/28 04:40:37;;;;;;;38.23;20.60;;;4.10;99.90;;;;;;5097794;28;20238;-80
2023/01/28 04:43:02;;;;;;;36.70;22.33;;;4.10;99.90;;;;;;5117192;28;20187;-80
2023/01/28 04:45:29;;;;;;;35.50;20.90;;;4.10;99.90;;;;;;5116558;28;20171;-84
2023/01/28 04:47:55;;;;;;;35.47;21.13;;;4.00;99.90;;;;;;5097642;28;20195;-85
2023/01/28 04:50:21;;;;;;;38.30;22.40;;;4.00;99.90;;;;;;5116033;28;20533;-82
2023/01/28 04:52:47;;;;;;;35.73;21.70;;;4.00;99.90;;;;;;5115713;28;20215;-84
2023/01/28 04:55:12;;;;;;;40.20;21.57;;;4.00;99.90;;;;;;5115940;28;20171;-80
2023/01/28 04:57:38;;;;;;;38.30;22.03;;;4.00;99.90;;;;;;5115767;28;20198;-85
2023/01/28 05:00:04;;;;;;;37.07;20.70;;;4.00;99.90;;;;;;5097692;28;20432;-80
2023/01/28 05:02:30;;;;;;;36.15;21.33;;;4.00;99.90;;;;;;5115708;28;20188;-80
2023/01/28 05:04:56;;;;;;;33.00;19.47;;;4.00;99.90;;;;;;5116311;28;20541;-80
2023/01/28 05:07:21;;;;;;;40.93;20.73;;;4.00;99.90;;;;;;5115652;28;20468;-80
2023/01/28 05:09:47;;;;;;;38.10;21.27;;;4.00;99.90;;;;;;5115518;28;20619;-80
2023/01/28 05:12:13;;;;;;;39.17;22.20;;;4.00;99.90;;;;;;5115439;28;20311;-80
2023/01/28 05:14:39;;;;;;;34.80;19.73;;;4.00;99.90;;;;;;5115943;28;20416;-85
2023/01/28 05:17:05;;;;;;;40.10;22.77;;;4.00;99.90;;;;;;5097133;28;20439;-80
2023/01/28 05:19:30;;;;;;;37.73;22.00;;;4.00;99.90;;;;;;5097328;28;20604;-85
2023/01/28 05:21:56;;;;;;;34.60;20.43;;;4.00;99.90;;;;;;5115388;28;20171;-83
2023/01/28 05:24:22;;;;;;;36.70;21.13;;;4.10;99.90;;;;;;5115635;28;20188;-80
2023/01/28 05:26:47;;;;;;;37.57;21.37;;;4.00;99.90;;;;;;5116116;28;20675;-79
2023/01/28 05:29:13;;;;;;;34.27;20.17;;;4.00;99.90;;;;;;5097339;28;20188;-80
2023/01/28 05:31:39;;;;;;;39.80;22.60;;;4.00;99.90;;;;;;5115111;28;20199;-83
2023/01/28 05:34:04;;;;;;;35.40;21.03;;;4.00;99.90;;;;;;5115250;28;20572;-80
2023/01/28 05:36:30;;;;;;;35.70;21.60;;;4.00;99.90;;;;;;5096815;28;20259;-85
2023/01/28 05:38:56;;;;;;;36.60;20.77;;;4.00;99.90;;;;;;5096779;28;20199;-85
2023/01/28 05:41:21;;;;;;;37.13;21.57;;;4.00;99.90;;;;;;5114967;28;20224;-84
2023/01/28 05:43:47;;;;;;;41.17;22.17;;;4.00;99.90;;;;;;5096504;28;20203;-84
2023/01/28 05:46:13;;;;;;;35.67;21.10;;;4.00;99.90;;;;;;5096617;28;20636;-80
2023/01/28 05:48:38;;;;;;;39.37;21.43;;;4.00;99.90;;;;;;5114888;28;20282;-85
2023/01/28 05:51:04;;;;;;;45.50;23.10;;;4.00;99.90;;;;;;5096504;28;20211;-80
2023/01/28 05:53:31;;;;;;;43.38;24.83;;;3.90;99.90;;;;;;5114715;28;20211;-84
2023/01/28 05:55:56;;;;;;;38.92;23.35;;;4.00;99.90;;;;;;5096511;28;20176;-84
2023/01/28 05:58:22;;;;;;;40.03;21.83;;;4.00;99.90;;;;;;5114627;28;20712;-84
2023/01/28 06:00:48;;;;;;;42.38;22.80;;;3.90;99.90;;;;;;5114638;28;20168;-83
2023/01/28 06:03:14;;;;;;;43.60;23.90;;;3.90;99.90;;;;;;5114608;28;20526;-86
2023/01/28 06:05:39;;;;;;;42.60;22.70;;;4.00;99.90;;;;;;5116560;28;20671;-83
2023/01/28 06:08:06;;;;;;;43.03;23.13;;;3.90;99.90;;;;;;5115671;28;20199;-80
2023/01/28 06:10:31;;;;;;;40.63;24.10;;;3.90;99.90;;;;;;5114232;28;20219;-81
2023/01/28 06:12:57;;;;;;;41.97;24.17;;;3.90;99.90;;;;;;5114380;28;20221;-80
2023/01/28 06:15:24;;;;;;;46.35;24.90;;;4.00;99.90;;;;;;5114628;28;20199;-85
2023/01/28 06:17:50;;;;;;;40.00;22.57;;;3.90;99.90;;;;;;5114248;28;20729;-80
2023/01/28 06:20:15;;;;;;;44.33;23.37;;;3.90;99.90;;;;;;5096063;28;20203;-79
2023/01/28 06:22:42;;;;;;;42.30;23.50;;;3.90;99.90;;;;;;5114235;28;20196;-84
2023/01/28 06:25:08;;;;;;;45.22;24.85;;;3.90;99.90;;;;;;5114824;28;20412;-80
2023/01/28 06:27:34;;;;;;;42.72;24.30;;;3.90;99.90;;;;;;5095859;28;20207;-80
2023/01/28 06:30:00;;;;;;;44.73;24.90;;;3.90;99.90;;;;;;5114817;28;20172;-84
2023/01/28 06:32:26;;;;;;;49.50;25.90;;;3.90;99.90;;;;;;5114014;28;20219;-84
2023/01/28 06:34:52;;;;;;;39.22;21.98;;;3.90;99.90;;;;;;5114704;28;20628;-85
2023/01/28 06:37:18;;;;;;;47.60;26.00;;;3.80;99.90;;;;;;5095811;28;20263;-80
2023/01/28 06:39:44;;;;;;;43.13;22.33;;;3.90;99.90;;;;;;5096014;28;20662;-85
2023/01/28 06:42:10;;;;;;;43.63;23.30;;;3.80;99.90;;;;;;5095727;28;20203;-80
2023/01/28 06:44:35;;;;;;;41.00;22.37;;;3.90;99.90;;;;;;5114430;28;20164;-84
2023/01/28 06:47:01;;;;;;;36.53;22.30;;;3.90;99.90;;;;;;5095780;28;20188;-84
2023/01/28 06:49:27;;;;;;;41.33;24.53;;;3.90;99.90;;;;;;5113982;28;20168;-80
2023/01/28 06:51:52;;;;;;;42.37;23.70;;;3.90;99.90;;;;;;5113894;28;20211;-84
2023/01/28 06:54:18;;;;;;;35.83;21.87;;;3.90;99.90;;;;;;5114486;28;20408;-80
2023/01/28 06:56:44;;;;;;;42.87;23.30;;;3.90;99.90;;;;;;5117732;28;20184;-84
2023/01/28 06:59:09;;;;;;;43.77;24.27;;;4.00;99.90;;;;;;5119368;28;20199;-85
2023/01/28 07:01:35;;;;;;;40.40;23.50;;;4.00;99.90;;;;;;5099822;28;20662;-83
2023/01/28 07:04:01;;;;;;;41.20;24.30;;;4.00;99.90;;;;;;5118335;28;20270;-85
2023/01/28 07:06:27;;;;;;;42.43;22.50;;;4.00;99.90;;;;;;5100043;28;20180;-82
2023/01/28 07:08:52;;;;;;;36.47;22.20;;;4.00;99.90;;;;;;5117723;28;20700;-80
2023/01/28 07:11:18;;;;;;;39.80;23.20;;;3.90;99.90;;;;;;5117889;28;20218;-81
2023/01/28 07:13:44;;;;;;;40.40;23.43;;;4.00;99.90;;;;;;5099500;28;20215;-85
2023/01/28 07:16:09;;;;;;;38.63;23.43;;;3.90;99.90;;;;;;5099537;28;20190;-84
2023/01/28 07:18:35;;;;;;;40.73;23.03;;;4.00;99.90;;;;;;5096794;28;20764;-84
2023/01/28 07:21:01;;;;;;;40.70;23.00;;;4.10;99.90;;;;;;5098792;28;20221;-85
2023/01/28 07:23:26;;;;;;;41.27;21.83;;;4.10;99.90;;;;;;5117209;28;20208;-81
2023/01/28 07:25:52;;;;;;;42.60;24.23;;;4.10;99.90;;;;;;5097728;28;20184;-80
2023/01/28 07:28:20;;;;;;;39.00;22.43;;;4.10;99.90;;;;;;5116972;28;20192;-80
2023/01/28 07:30:52;;;;;;;36.90;22.08;;;4.00;99.90;;;;;;5097769;28;20180;-80
2023/01/28 07:33:18;;;;;;;43.70;23.02;;;4.10;99.90;;;;;;5115168;28;20196;-85
2023/01/28 07:35:44;;;;;;;42.93;23.80;;;4.00;99.90;;;;;;5111100;28;20172;-80
2023/01/28 07:38:11;;;;;;;36.80;22.10;;;4.10;99.90;;;;;;5096786;28;20435;-80
2023/01/28 07:40:36;;;;;;;42.50;23.40;;;4.10;99.90;;;;;;5103729;28;20191;-84
2023/01/28 07:43:03;;;;;;;37.47;23.43;;;4.10;99.90;;;;;;5097960;28;20274;-80
2023/01/28 07:45:30;;;;;;;44.10;23.85;;;4.20;99.90;;;;;;5095655;28;20264;-88
2023/01/28 07:47:57;;;;;;;39.92;23.98;;;4.20;99.90;;;;;;5094425;28;20188;-86
2023/01/28 07:50:24;;;;;;;41.47;24.80;;;4.20;99.90;;;;;;5102839;28;20219;-86
2023/01/28 07:52:50;;;;;;;44.95;23.92;;;4.20;99.90;;;;;;5096346;28;20214;-81
2023/01/28 07:55:16;;;;;;;38.93;23.00;;;4.20;99.90;;;;;;5114784;28;20171;-82
2023/01/28 07:57:53;;;;;;;41.63;22.23;;;4.30;99.90;;;;;;5114879;28;20477;-86
2023/01/28 08:00:21;;;;;;;39.03;21.77;;;4.30;99.90;;;;;;5097075;28;20526;-81
2023/01/28 08:02:48;;;;;;;38.47;21.60;;;4.40;99.90;;;;;;5098436;28;20242;-86
2023/01/28 08:05:18;;;;;;;39.72;22.67;;;4.40;99.90;;;;;;5116957;28;20202;-85
2023/01/28 08:07:47;;;;;;;35.00;21.00;;;4.40;99.90;;;;;;5103993;28;20234;-87
2023/01/28 08:10:13;;;;;;;37.17;21.33;;;4.40;99.90;;;;;;5116644;28;20247;-86
2023/01/28 08:12:39;;;;;;;40.20;24.42;;;4.40;99.90;;;;;;5116174;28;20215;-87
2023/01/28 08:15:06;;;;;;;39.37;23.33;;;4.40;99.90;;;;;;5112202;28;20531;-87
2023/01/28 08:17:32;;;;;;;49.58;25.55;;;4.50;99.90;;;;;;5096146;28;20858;-86
2023/01/28 08:19:58;;;;;;;39.42;23.58;;;4.50;99.90;;;;;;5096173;28;20181;-82
2023/01/28 08:22:27;;;;;;;34.80;20.40;;;4.50;99.90;;;;;;5078024;28;20207;-86
2023/01/28 08:24:52;;;;;;;35.97;22.10;;;4.60;99.90;;;;;;5096279;28;20641;-82
2023/01/28 08:27:18;;;;;;;35.70;21.87;;;4.50;99.90;;;;;;5097235;28;20235;-82
2023/01/28 08:29:44;;;;;;;35.67;21.27;;;4.50;99.90;;;;;;5116817;28;20172;-82
2023/01/28 08:32:10;;;;;;;35.03;19.47;;;4.60;99.90;;;;;;5116263;28;20539;-82
2023/01/28 08:34:36;;;;;;;38.93;20.10;;;4.60;99.90;;;;;;5108481;28;20234;-82
2023/01/28 08:37:01;;;;;;;43.03;22.47;;;4.60;99.90;;;;;;5095908;28;20402;-86
2023/01/28 08:39:27;;;;;;;35.20;18.50;;;4.70;99.90;;;;;;5077896;28;20192;-82
2023/01/28 08:41:53;;;;;;;36.03;22.20;;;4.70;99.90;;;;;;5082669;28;20648;-82
2023/01/28 08:44:18;;;;;;;42.33;23.30;;;4.70;99.90;;;;;;5117746;28;20170;-82
2023/01/28 08:46:44;;;;;;;37.37;23.27;;;4.70;99.90;;;;;;5116368;28;20258;-87
2023/01/28 08:49:10;;;;;;;39.00;24.73;;;4.70;99.90;;;;;;5115960;28;20541;-87
2023/01/28 08:51:35;;;;;;;32.90;20.90;;;4.70;99.90;;;;;;5106429;28;20246;-81
2023/01/28 08:54:01;;;;;;;35.90;19.83;;;4.70;99.90;;;;;;5116178;28;20196;-87
2023/01/28 08:56:27;;;;;;;34.87;20.63;;;4.80;99.90;;;;;;5115903;28;20416;-86
2023/01/28 08:58:53;;;;;;;33.17;21.70;;;4.70;99.90;;;;;;5116040;28;20547;-82
2023/01/28 09:01:18;;;;;;;38.83;23.27;;;4.80;99.90;;;;;;5099357;28;20181;-82
2023/01/28 09:03:44;;;;;;;38.53;22.27;;;4.80;99.90;;;;;;5077209;28;20197;-82
2023/01/28 09:06:10;;;;;;;33.90;21.37;;;4.80;99.90;;;;;;5095396;28;20173;-81
2023/01/28 09:08:35;;;;;;;33.73;22.93;;;4.80;99.90;;;;;;5095010;28;20220;-82
2023/01/28 09:11:01;;;;;;;37.57;22.90;;;4.90;99.90;;;;;;5096106;28;20211;-82
2023/01/28 09:13:28;;;;;;;33.67;23.63;;;4.90;99.90;;;;;;5095200;28;20203;-82
2023/01/28 09:15:55;;;;;;;33.50;19.50;;;4.90;99.90;;;;;;5095265;28;20637;-82
2023/01/28 09:18:20;;;;;;;32.20;18.38;;;4.90;99.90;;;;;;5094853;28;20196;-87
2023/01/28 09:20:46;;;;;;;37.97;21.93;;;4.90;99.90;;;;;;5095272;28;20233;-82
2023/01/28 09:23:12;;;;;;;25.83;17.23;;;4.80;99.90;;;;;;5096950;28;20414;-88
2023/01/28 09:25:38;;;;;;;31.17;19.30;;;4.90;99.90;;;;;;5096993;28;20652;-85
2023/01/28 09:28:04;;;;;;;31.20;17.93;;;5.00;99.90;;;;;;5114834;28;20507;-83
2023/01/28 09:30:31;;;;;;;37.08;21.58;;;5.00;99.90;;;;;;5101573;28;20450;-86
2023/01/28 09:32:57;;;;;;;32.92;18.75;;;5.10;99.90;;;;;;5076463;28;20752;-82
2023/01/28 09:35:24;;;;;;;30.33;20.17;;;5.10;99.90;;;;;;5076534;28;20269;-83
2023/01/28 09:37:50;;;;;;;29.65;19.15;;;5.10;99.90;;;;;;5095447;28;20200;-82
2023/01/28 09:40:20;;;;;;;29.65;18.00;;;5.20;99.90;;;;;;5115074;28;20180;-82
2023/01/28 09:42:57;;;;;;;30.55;20.05;;;5.10;99.90;;;;;;5114790;28;20272;-82
2023/01/28 09:45:44;;;;;;;29.65;17.38;;;5.10;99.90;;;;;;5114958;28;20246;-82
2023/01/28 09:48:16;;;;;;;28.42;17.50;;;5.10;99.90;;;;;;5097956;28;20288;-87
2023/01/28 09:50:46;;;;;;;28.05;19.77;;;5.10;99.90;;;;;;5104066;28;20707;-82
2023/01/28 09:53:21;;;;;;;29.38;17.83;;;5.20;99.90;;;;;;5095287;28;20673;-82
2023/01/28 09:55:53;;;;;;;27.30;16.30;;;5.20;99.90;;;;;;5094838;28;20645;-86
2023/01/28 09:58:19;;;;;;;37.10;20.08;;;5.20;99.90;;;;;;5106009;28;20211;-82
2023/01/28 10:01:15;;;;;;;34.53;20.50;;;5.20;99.90;;;;;;5076388;28;20184;-85
2023/01/28 10:04:04;;;;;;;33.28;21.73;;;5.20;99.90;;;;;;5056480;28;20212;-88
2023/01/28 10:06:59;;;;;;;44.10;29.90;;;5.20;99.90;;;;;;5094569;28;20218;-82
2023/01/28 10:09:52;;;;;;;36.85;23.60;;;5.10;99.90;;;;;;5096134;28;20690;-87
2023/01/28 10:12:39;;;;;;;37.08;21.02;;;5.10;99.90;;;;;;5114551;28;20225;-82
2023/01/28 10:15:23;;;;;;;37.10;25.60;;;5.10;99.90;;;;;;5096561;28;20575;-89
2023/01/28 10:17:51;;;;;;;33.10;18.98;;;5.10;99.90;;;;;;5094215;28;20204;-88
2023/01/28 10:20:34;;;;;;;31.55;19.38;;;5.10;99.90;;;;;;5096363;28;20179;-83
2023/01/28 10:23:10;;;;;;;32.28;18.08;;;5.20;99.90;;;;;;5114380;28;20669;-88
2023/01/28 10:25:38;;;;;;;36.83;20.52;;;5.20;99.90;;;;;;5096062;28;20175;-82
2023/01/28 10:28:20;;;;;;;31.23;20.15;;;5.30;99.90;;;;;;5076030;28;20599;-87
2023/01/28 10:30:47;;;;;;;33.13;20.00;;;5.30;99.90;;;;;;5093552;28;20244;-82
2023/01/28 10:33:30;;;;;;;35.35;19.70;;;5.30;99.90;;;;;;5093735;28;20251;-82
2023/01/28 10:35:56;;;;;;;26.75;16.40;;;5.30;99.90;;;;;;5096064;28;20183;-83
2023/01/28 10:38:24;;;;;;;31.00;19.02;;;5.30;99.90;;;;;;5094479;28;20275;-82
2023/01/28 10:40:50;;;;;;;34.92;20.00;;;5.40;99.90;;;;;;5093858;28;20173;-82
2023/01/28 10:43:21;;;;;;;34.63;19.77;;;5.30;99.90;;;;;;5093636;28;20679;-87
2023/01/28 10:46:03;;;;;;;29.15;17.75;;;5.40;99.90;;;;;;5096400;28;20196;-85
2023/01/28 10:48:33;;;;;;;35.38;21.00;;;5.40;99.90;;;;;;5075430;28;20234;-79
2023/01/28 10:51:03;;;;;;;32.63;18.77;;;5.40;99.90;;;;;;5093563;28;20549;-80
2023/01/28 10:53:41;;;;;;;38.63;22.02;;;5.50;99.90;;;;;;5093464;28;20275;-80
2023/01/28 10:56:13;;;;;;;70.28;40.72;;;5.50;99.90;;;;;;5076449;28;20188;-85
2023/01/28 10:59:00;;;;;;;63.78;38.55;;;5.50;99.90;;;;;;5093668;28;20593;-80
2023/01/28 11:01:48;;;;;;;45.22;30.05;;;5.50;99.90;;;;;;5093596;28;20176;-81
2023/01/28 11:04:35;;;;;;;35.17;20.77;;;5.50;99.90;;;;;;5053549;28;20216;-80
2023/01/28 11:07:00;;;;;;;37.72;20.63;;;5.60;99.90;;;;;;5093570;28;20560;-82
2023/01/28 11:09:31;;;;;;;51.10;30.10;;;5.60;99.90;;;;;;5075268;28;20230;-88
2023/01/28 11:12:08;;;;;;;40.05;23.48;;;5.50;99.90;;;;;;5093382;28;20669;-85
2023/01/28 11:14:34;;;;;;;44.95;23.35;;;5.50;99.90;;;;;;5094048;28;20183;-81
2023/01/28 11:17:00;;;;;;;39.43;22.87;;;5.50;99.90;;;;;;5075368;28;20179;-86
2023/01/28 11:19:35;;;;;;;33.60;20.17;;;5.60;99.90;;;;;;5075238;28;20177;-87
2023/01/28 11:22:01;;;;;;;36.97;19.05;;;5.60;99.90;;;;;;5093465;28;20172;-86
2023/01/28 11:24:32;;;;;;;35.70;20.30;;;5.60;99.90;;;;;;5100868;28;20179;-81
2023/01/28 11:27:15;;;;;;;45.88;26.65;;;5.50;99.90;;;;;;5114372;28;20180;-87
2023/01/28 11:29:41;;;;;;;35.22;23.00;;;5.50;99.90;;;;;;5114750;28;20207;-84
2023/01/28 11:32:17;;;;;;;34.30;22.50;;;5.50;99.90;;;;;;5095486;28;20708;-86
2023/01/28 11:34:56;;;;;;;36.63;23.77;;;5.50;99.90;;;;;;5093720;28;20172;-81
2023/01/28 11:37:23;;;;;;;39.65;24.20;;;5.60;99.90;;;;;;5075172;28;20200;-80
2023/01/28 11:40:20;;;;;;;51.75;34.83;;;5.60;99.90;;;;;;5075304;28;20177;-81
2023/01/28 11:42:54;;;;;;;54.70;34.63;;;5.60;99.90;;;;;;5094648;28;20205;-85
2023/01/28 11:45:51;;;;;;;42.88;29.60;;;5.70;99.90;;;;;;5116939;28;20709;-86
2023/01/28 11:48:28;;;;;;;35.75;23.27;;;5.70;99.90;;;;;;5093453;28;20241;-81
2023/01/28 11:51:19;;;;;;;33.72;19.33;;;5.70;99.90;;;;;;5116558;28;20171;-81
2023/01/28 11:54:14;;;;;;;37.13;22.40;;;5.70;99.90;;;;;;5116788;28;20226;-86
2023/01/28 11:56:58;;;;;;;30.27;19.50;;;5.70;99.90;;;;;;5097024;28;20756;-81
2023/01/28 11:59:56;;;;;;;31.58;18.15;;;5.70;99.90;;;;;;5117438;28;20179;-87
2023/01/28 12:02:58;;;;;;;32.50;20.60;;;5.80;99.90;;;;;;5079196;28;20281;-88
2023/01/28 12:05:42;;;;;;;30.85;18.88;;;5.80;99.90;;;;;;5078411;28;20222;-87
2023/01/28 12:08:18;;;;;;;32.78;21.42;;;5.90;99.90;;;;;;5096502;28;20226;-81
2023/01/28 12:10:55;;;;;;;37.13;23.08;;;5.90;99.90;;;;;;5096704;28;20184;-81
2023/01/28 12:13:41;;;;;;;33.65;20.05;;;5.90;99.90;;;;;;5096484;28;20204;-87
2023/01/28 12:16:58;;;;;;;33.85;17.83;;;5.90;99.90;;;;;;5080220;28;20552;-82
2023/01/28 12:19:45;;;;;;;28.88;17.90;;;5.90;99.90;;;;;;5082273;28;20192;-83
2023/01/28 12:22:41;;;;;;;25.73;16.67;;;5.90;99.90;;;;;;5116790;28;20195;-85
2023/01/28 12:25:19;;;;;;;31.92;21.05;;;5.90;99.90;;;;;;5095610;28;20534;-82
2023/01/28 12:27:54;;;;;;;31.42;18.02;;;5.80;99.90;;;;;;5096171;28;20677;-82
2023/01/28 12:30:19;;;;;;;31.90;17.63;;;5.90;99.90;;;;;;5078027;28;20176;-81
2023/01/28 12:33:30;;;;;;;32.07;22.97;;;5.90;99.90;;;;;;5077676;28;20693;-81
2023/01/28 12:36:13;;;;;;;37.55;21.83;;;5.90;99.90;;;;;;5065601;28;20676;-86
2023/01/28 12:39:16;;;;;;;39.92;23.80;;;6.00;99.90;;;;;;5077892;28;20204;-87
2023/01/28 12:41:48;;;;;;;28.83;19.63;;;6.00;99.90;;;;;;5013798;28;20179;-81
2023/01/28 12:44:26;;;;;;;31.15;21.10;;;6.00;99.90;;;;;;5017447;28;20179;-82
2023/01/28 12:46:59;;;;;;;39.42;24.13;;;6.00;99.90;;;;;;5082021;28;20190;-86
2023/01/28 12:49:38;;;;;;;37.25;22.00;;;6.00;99.90;;;;;;5116444;28;20549;-86
2023/01/28 12:52:35;;;;;;;27.15;16.50;;;6.00;99.90;;;;;;5097736;28;20549;-86
2023/01/28 12:55:13;;;;;;;29.20;17.88;;;6.00;99.90;;;;;;5108503;28;20172;-81
2023/01/28 12:57:40;;;;;;;25.52;15.57;;;6.10;99.90;;;;;;5077362;28;20204;-86
2023/01/28 13:00:26;;;;;;;28.63;17.15;;;6.10;99.90;;;;;;5095407;28;20747;-86
2023/01/28 13:03:17;;;;;;;24.60;14.80;;;6.00;99.90;;;;;;5077458;28;20212;-81
2023/01/28 13:05:51;;;;;;;25.67;15.13;;;6.00;99.90;;;;;;5077228;28;20187;-87
2023/01/28 13:08:21;;;;;;;27.45;17.00;;;6.00;99.90;;;;;;5095098;28;20716;-82
2023/01/28 13:10:47;;;;;;;21.42;14.85;;;5.90;99.90;;;;;;5077191;28;20180;-82
2023/01/28 13:13:19;;;;;;;31.77;18.08;;;5.90;99.90;;;;;;5076831;28;20219;-86
2023/01/28 13:15:45;;;;;;;23.63;15.68;;;5.90;99.90;;;;;;5113917;28;20192;-82
2023/01/28 13:18:47;;;;;;;25.58;16.77;;;5.90;99.90;;;;;;5097128;28;20238;-86
2023/01/28 13:21:24;;;;;;;28.63;17.23;;;5.90;99.90;;;;;;5114515;28;20729;-81
2023/01/28 13:24:08;;;;;;;24.23;15.43;;;5.80;99.90;;;;;;5082535;28;20668;-82
2023/01/28 13:26:44;;;;;;;27.38;15.52;;;5.90;99.90;;;;;;5076838;28;20656;-86
2023/01/28 13:29:13;;;;;;;23.13;14.88;;;5.90;99.90;;;;;;5076925;28;20317;-87
2023/01/28 13:31:41;;;;;;;31.13;17.30;;;5.80;99.90;;;;;;5094801;28;20204;-81